sensor_id;sensor_type;location;lat;lon;timestamp;P1;durP1;ratioP1;P2;durP2;ratioP2
11962;SDS011;62678;52.130;5.584;2022-12-07T00:00:49;18.98;;;11.38;;
11962;SDS011;62678;52.130;5.584;2022-12-07T00:03:16;20.85;;;10.88;;
11962;SDS011;62678;52.130;5.584;2022-12-07T00:05:43;20.67;;;11.20;;
11962;SDS011;62678;52.130;5.584;2022-12-07T00:08:10;24.95;;;17.38;;
11962;SDS011;62678;52.130;5.584;2022-12-07T00:10:38;25.50;;;14.95;;
11962;SDS011;62678;52.130;5.584;2022-12-07T00:13:05;19.38;;;11.48;;
11962;SDS011;62678;52.130;5.584;2022-12-07T00:15:33;21.90;;;12.45;;
11962;SDS011;62678;52.130;5.584;2022-12-07T00:18:00;21.33;;;11.48;;
11962;SDS011;62678;52.130;5.584;2022-12-07T00:20:27;22.05;;;12.63;;
11962;SDS011;62678;52.130;5.584;2022-12-07T00:22:55;18.25;;;10.63;;
11962;SDS011;62678;52.130;5.584;2022-12-07T00:25:22;16.17;;;10.20;;
11962;SDS011;62678;52.130;5.584;2022-12-07T00:27:50;22.40;;;11.02;;
11962;SDS011;62678;52.130;5.584;2022-12-07T00:30:18;17.30;;;12.27;;
11962;SDS011;62678;52.130;5.584;2022-12-07T00:32:45;15.98;;;10.82;;
11962;SDS011;62678;52.130;5.584;2022-12-07T00:35:13;21.63;;;12.18;;
11962;SDS011;62678;52.130;5.584;2022-12-07T00:37:41;18.75;;;11.70;;
11962;SDS011;62678;52.130;5.584;2022-12-07T00:40:08;17.98;;;10.50;;
11962;SDS011;62678;52.130;5.584;2022-12-07T00:42:35;18.60;;;10.27;;
11962;SDS011;62678;52.130;5.584;2022-12-07T00:45:04;19.95;;;11.63;;
11962;SDS011;62678;52.130;5.584;2022-12-07T00:47:32;21.13;;;11.15;;
11962;SDS011;62678;52.130;5.584;2022-12-07T00:49:59;18.67;;;11.73;;
11962;SDS011;62678;52.130;5.584;2022-12-07T00:52:26;18.75;;;11.02;;
11962;SDS011;62678;52.130;5.584;2022-12-07T00:54:53;23.30;;;12.50;;
11962;SDS011;62678;52.130;5.584;2022-12-07T00:57:19;19.35;;;12.40;;
11962;SDS011;62678;52.130;5.584;2022-12-07T00:59:46;16.25;;;11.63;;
11962;SDS011;62678;52.130;5.584;2022-12-07T01:02:15;25.05;;;12.63;;
11962;SDS011;62678;52.130;5.584;2022-12-07T01:04:42;22.15;;;14.15;;
11962;SDS011;62678;52.130;5.584;2022-12-07T01:07:09;22.38;;;14.23;;
11962;SDS011;62678;52.130;5.584;2022-12-07T01:09:36;21.67;;;13.02;;
11962;SDS011;62678;52.130;5.584;2022-12-07T01:12:03;21.17;;;13.68;;
11962;SDS011;62678;52.130;5.584;2022-12-07T01:14:30;22.17;;;13.98;;
11962;SDS011;62678;52.130;5.584;2022-12-07T01:16:57;29.90;;;14.77;;
11962;SDS011;62678;52.130;5.584;2022-12-07T01:19:26;21.17;;;15.02;;
11962;SDS011;62678;52.130;5.584;2022-12-07T01:21:53;25.42;;;15.75;;
11962;SDS011;62678;52.130;5.584;2022-12-07T01:24:19;20.42;;;13.48;;
11962;SDS011;62678;52.130;5.584;2022-12-07T01:26:48;22.95;;;13.38;;
11962;SDS011;62678;52.130;5.584;2022-12-07T01:29:15;18.45;;;12.52;;
11962;SDS011;62678;52.130;5.584;2022-12-07T01:31:42;25.48;;;15.07;;
11962;SDS011;62678;52.130;5.584;2022-12-07T01:34:09;31.77;;;16.75;;
11962;SDS011;62678;52.130;5.584;2022-12-07T01:36:37;35.75;;;19.38;;
11962;SDS011;62678;52.130;5.584;2022-12-07T01:39:05;30.20;;;18.52;;
11962;SDS011;62678;52.130;5.584;2022-12-07T01:41:33;33.83;;;18.48;;
11962;SDS011;62678;52.130;5.584;2022-12-07T01:44:09;29.60;;;15.50;;
11962;SDS011;62678;52.130;5.584;2022-12-07T01:46:41;26.55;;;15.48;;
11962;SDS011;62678;52.130;5.584;2022-12-07T01:49:10;25.10;;;14.45;;
11962;SDS011;62678;52.130;5.584;2022-12-07T01:51:41;20.20;;;14.63;;
11962;SDS011;62678;52.130;5.584;2022-12-07T01:54:12;22.60;;;14.23;;
11962;SDS011;62678;52.130;5.584;2022-12-07T01:56:42;27.17;;;16.02;;
11962;SDS011;62678;52.130;5.584;2022-12-07T01:59:13;36.15;;;19.25;;
11962;SDS011;62678;52.130;5.584;2022-12-07T02:01:40;41.00;;;20.30;;
11962;SDS011;62678;52.130;5.584;2022-12-07T02:04:07;37.08;;;20.20;;
11962;SDS011;62678;52.130;5.584;2022-12-07T02:06:35;38.33;;;19.95;;
11962;SDS011;62678;52.130;5.584;2022-12-07T02:09:04;33.15;;;19.25;;
11962;SDS011;62678;52.130;5.584;2022-12-07T02:11:31;29.80;;;16.58;;
11962;SDS011;62678;52.130;5.584;2022-12-07T02:13:58;26.80;;;14.38;;
11962;SDS011;62678;52.130;5.584;2022-12-07T02:16:27;26.55;;;14.38;;
11962;SDS011;62678;52.130;5.584;2022-12-07T02:19:11;25.13;;;12.77;;
11962;SDS011;62678;52.130;5.584;2022-12-07T02:22:06;22.92;;;11.93;;
11962;SDS011;62678;52.130;5.584;2022-12-07T02:24:52;22.17;;;11.00;;
11962;SDS011;62678;52.130;5.584;2022-12-07T02:27:38;21.05;;;10.20;;
11962;SDS011;62678;52.130;5.584;2022-12-07T02:30:13;22.73;;;9.50;;
11962;SDS011;62678;52.130;5.584;2022-12-07T02:32:43;21.15;;;9.02;;
11962;SDS011;62678;52.130;5.584;2022-12-07T02:35:16;23.63;;;8.52;;
11962;SDS011;62678;52.130;5.584;2022-12-07T02:37:48;24.05;;;8.05;;
11962;SDS011;62678;52.130;5.584;2022-12-07T02:40:22;16.70;;;7.80;;
11962;SDS011;62678;52.130;5.584;2022-12-07T02:42:55;16.92;;;6.43;;
11962;SDS011;62678;52.130;5.584;2022-12-07T02:45:29;15.00;;;6.20;;
11962;SDS011;62678;52.130;5.584;2022-12-07T02:47:58;12.30;;;5.88;;
11962;SDS011;62678;52.130;5.584;2022-12-07T02:50:26;15.63;;;6.38;;
11962;SDS011;62678;52.130;5.584;2022-12-07T02:52:54;17.58;;;6.00;;
11962;SDS011;62678;52.130;5.584;2022-12-07T02:55:22;12.90;;;5.95;;
11962;SDS011;62678;52.130;5.584;2022-12-07T02:58:00;11.45;;;5.65;;
11962;SDS011;62678;52.130;5.584;2022-12-07T03:00:37;15.57;;;5.93;;
11962;SDS011;62678;52.130;5.584;2022-12-07T03:03:14;15.02;;;5.47;;
11962;SDS011;62678;52.130;5.584;2022-12-07T03:05:45;17.08;;;5.57;;
11962;SDS011;62678;52.130;5.584;2022-12-07T03:08:21;13.52;;;5.05;;
11962;SDS011;62678;52.130;5.584;2022-12-07T03:10:54;13.07;;;5.00;;
11962;SDS011;62678;52.130;5.584;2022-12-07T03:13:25;11.20;;;5.28;;
11962;SDS011;62678;52.130;5.584;2022-12-07T03:16:00;11.95;;;4.95;;
11962;SDS011;62678;52.130;5.584;2022-12-07T03:18:32;15.20;;;5.40;;
11962;SDS011;62678;52.130;5.584;2022-12-07T03:21:04;12.30;;;4.53;;
11962;SDS011;62678;52.130;5.584;2022-12-07T03:23:34;12.43;;;5.50;;
11962;SDS011;62678;52.130;5.584;2022-12-07T03:26:03;10.48;;;5.38;;
11962;SDS011;62678;52.130;5.584;2022-12-07T03:28:33;12.98;;;5.10;;
11962;SDS011;62678;52.130;5.584;2022-12-07T03:31:05;16.70;;;5.07;;
11962;SDS011;62678;52.130;5.584;2022-12-07T03:33:39;14.10;;;5.03;;
11962;SDS011;62678;52.130;5.584;2022-12-07T03:36:11;13.63;;;5.07;;
11962;SDS011;62678;52.130;5.584;2022-12-07T03:38:46;10.05;;;5.05;;
11962;SDS011;62678;52.130;5.584;2022-12-07T03:41:18;9.27;;;5.03;;
11962;SDS011;62678;52.130;5.584;2022-12-07T03:43:50;9.73;;;5.03;;
11962;SDS011;62678;52.130;5.584;2022-12-07T03:46:20;13.98;;;5.05;;
11962;SDS011;62678;52.130;5.584;2022-12-07T03:48:56;19.02;;;6.13;;
11962;SDS011;62678;52.130;5.584;2022-12-07T03:51:30;12.50;;;5.18;;
11962;SDS011;62678;52.130;5.584;2022-12-07T03:54:05;8.13;;;4.25;;
11962;SDS011;62678;52.130;5.584;2022-12-07T03:56:36;12.65;;;4.72;;
11962;SDS011;62678;52.130;5.584;2022-12-07T03:59:04;10.52;;;5.13;;
11962;SDS011;62678;52.130;5.584;2022-12-07T04:01:34;10.85;;;5.00;;
11962;SDS011;62678;52.130;5.584;2022-12-07T04:04:00;12.82;;;5.45;;
11962;SDS011;62678;52.130;5.584;2022-12-07T04:06:27;11.43;;;5.55;;
11962;SDS011;62678;52.130;5.584;2022-12-07T04:08:54;13.07;;;6.05;;
11962;SDS011;62678;52.130;5.584;2022-12-07T04:11:21;15.80;;;5.28;;
11962;SDS011;62678;52.130;5.584;2022-12-07T04:13:48;19.15;;;5.88;;
11962;SDS011;62678;52.130;5.584;2022-12-07T04:16:34;10.65;;;5.75;;
11962;SDS011;62678;52.130;5.584;2022-12-07T04:19:01;12.60;;;4.70;;
11962;SDS011;62678;52.130;5.584;2022-12-07T04:21:28;15.80;;;5.75;;
11962;SDS011;62678;52.130;5.584;2022-12-07T04:23:54;9.68;;;4.97;;
11962;SDS011;62678;52.130;5.584;2022-12-07T04:26:21;12.50;;;5.40;;
11962;SDS011;62678;52.130;5.584;2022-12-07T04:28:48;16.13;;;5.70;;
11962;SDS011;62678;52.130;5.584;2022-12-07T04:31:15;9.70;;;4.72;;
11962;SDS011;62678;52.130;5.584;2022-12-07T04:33:43;13.02;;;4.55;;
11962;SDS011;62678;52.130;5.584;2022-12-07T04:36:10;11.55;;;4.63;;
11962;SDS011;62678;52.130;5.584;2022-12-07T04:38:37;12.52;;;4.40;;
11962;SDS011;62678;52.130;5.584;2022-12-07T04:41:04;10.65;;;4.60;;
11962;SDS011;62678;52.130;5.584;2022-12-07T04:43:32;14.63;;;5.05;;
11962;SDS011;62678;52.130;5.584;2022-12-07T04:45:59;7.78;;;4.57;;
11962;SDS011;62678;52.130;5.584;2022-12-07T04:48:26;12.63;;;4.85;;
11962;SDS011;62678;52.130;5.584;2022-12-07T04:50:55;12.18;;;4.90;;
11962;SDS011;62678;52.130;5.584;2022-12-07T04:53:21;9.30;;;4.57;;
11962;SDS011;62678;52.130;5.584;2022-12-07T04:55:48;12.02;;;4.60;;
11962;SDS011;62678;52.130;5.584;2022-12-07T04:58:15;14.27;;;4.15;;
11962;SDS011;62678;52.130;5.584;2022-12-07T05:00:42;14.80;;;5.35;;
11962;SDS011;62678;52.130;5.584;2022-12-07T05:03:09;10.95;;;4.72;;
11962;SDS011;62678;52.130;5.584;2022-12-07T05:05:39;10.95;;;4.68;;
11962;SDS011;62678;52.130;5.584;2022-12-07T05:08:07;10.02;;;4.20;;
11962;SDS011;62678;52.130;5.584;2022-12-07T05:10:34;10.13;;;4.40;;
11962;SDS011;62678;52.130;5.584;2022-12-07T05:13:01;11.20;;;4.10;;
11962;SDS011;62678;52.130;5.584;2022-12-07T05:15:28;13.60;;;4.40;;
11962;SDS011;62678;52.130;5.584;2022-12-07T05:17:55;13.25;;;4.78;;
11962;SDS011;62678;52.130;5.584;2022-12-07T05:20:22;10.25;;;5.05;;
11962;SDS011;62678;52.130;5.584;2022-12-07T05:22:49;16.48;;;5.30;;
11962;SDS011;62678;52.130;5.584;2022-12-07T05:25:17;19.95;;;5.13;;
11962;SDS011;62678;52.130;5.584;2022-12-07T05:27:44;12.98;;;4.40;;
11962;SDS011;62678;52.130;5.584;2022-12-07T05:30:11;10.68;;;4.07;;
11962;SDS011;62678;52.130;5.584;2022-12-07T05:32:38;20.17;;;5.45;;
11962;SDS011;62678;52.130;5.584;2022-12-07T05:35:05;9.93;;;4.15;;
11962;SDS011;62678;52.130;5.584;2022-12-07T05:37:33;10.73;;;4.15;;
11962;SDS011;62678;52.130;5.584;2022-12-07T05:40:00;13.25;;;4.50;;
11962;SDS011;62678;52.130;5.584;2022-12-07T05:42:28;11.88;;;4.60;;
11962;SDS011;62678;52.130;5.584;2022-12-07T05:44:55;10.75;;;3.97;;
11962;SDS011;62678;52.130;5.584;2022-12-07T05:47:22;11.27;;;4.40;;
11962;SDS011;62678;52.130;5.584;2022-12-07T05:49:49;8.63;;;3.40;;
11962;SDS011;62678;52.130;5.584;2022-12-07T05:52:16;9.98;;;4.47;;
11962;SDS011;62678;52.130;5.584;2022-12-07T05:54:43;10.48;;;3.15;;
11962;SDS011;62678;52.130;5.584;2022-12-07T05:57:10;14.02;;;4.20;;
11962;SDS011;62678;52.130;5.584;2022-12-07T05:59:38;14.93;;;4.38;;
11962;SDS011;62678;52.130;5.584;2022-12-07T06:02:05;10.93;;;4.55;;
11962;SDS011;62678;52.130;5.584;2022-12-07T06:04:34;10.98;;;4.28;;
11962;SDS011;62678;52.130;5.584;2022-12-07T06:07:02;7.68;;;3.88;;
11962;SDS011;62678;52.130;5.584;2022-12-07T06:09:30;14.18;;;3.78;;
11962;SDS011;62678;52.130;5.584;2022-12-07T06:11:57;7.95;;;3.80;;
11962;SDS011;62678;52.130;5.584;2022-12-07T06:14:44;12.30;;;3.85;;
11962;SDS011;62678;52.130;5.584;2022-12-07T06:17:11;9.02;;;3.42;;
11962;SDS011;62678;52.130;5.584;2022-12-07T06:19:39;12.80;;;3.75;;
11962;SDS011;62678;52.130;5.584;2022-12-07T06:22:06;10.55;;;3.45;;
11962;SDS011;62678;52.130;5.584;2022-12-07T06:24:34;10.98;;;3.20;;
11962;SDS011;62678;52.130;5.584;2022-12-07T06:27:01;10.55;;;3.05;;
11962;SDS011;62678;52.130;5.584;2022-12-07T06:29:28;10.20;;;3.58;;
11962;SDS011;62678;52.130;5.584;2022-12-07T06:31:57;14.05;;;4.22;;
11962;SDS011;62678;52.130;5.584;2022-12-07T06:34:25;18.45;;;5.57;;
11962;SDS011;62678;52.130;5.584;2022-12-07T06:36:53;12.73;;;4.07;;
11962;SDS011;62678;52.130;5.584;2022-12-07T06:39:21;12.60;;;4.10;;
11962;SDS011;62678;52.130;5.584;2022-12-07T06:41:50;12.18;;;3.20;;
11962;SDS011;62678;52.130;5.584;2022-12-07T06:44:18;11.85;;;3.10;;
11962;SDS011;62678;52.130;5.584;2022-12-07T06:46:45;14.38;;;4.18;;
11962;SDS011;62678;52.130;5.584;2022-12-07T06:49:13;17.17;;;4.05;;
11962;SDS011;62678;52.130;5.584;2022-12-07T06:51:41;6.60;;;3.00;;
11962;SDS011;62678;52.130;5.584;2022-12-07T06:54:09;11.85;;;3.38;;
11962;SDS011;62678;52.130;5.584;2022-12-07T06:56:36;13.23;;;3.33;;
11962;SDS011;62678;52.130;5.584;2022-12-07T06:59:03;14.52;;;3.10;;
11962;SDS011;62678;52.130;5.584;2022-12-07T07:01:31;11.48;;;2.78;;
11962;SDS011;62678;52.130;5.584;2022-12-07T07:03:59;13.43;;;2.70;;
11962;SDS011;62678;52.130;5.584;2022-12-07T07:06:28;15.82;;;4.90;;
11962;SDS011;62678;52.130;5.584;2022-12-07T07:08:55;11.13;;;3.20;;
11962;SDS011;62678;52.130;5.584;2022-12-07T07:11:22;8.70;;;2.55;;
11962;SDS011;62678;52.130;5.584;2022-12-07T07:13:49;13.02;;;3.15;;
11962;SDS011;62678;52.130;5.584;2022-12-07T07:16:16;12.35;;;2.70;;
11962;SDS011;62678;52.130;5.584;2022-12-07T07:18:43;16.45;;;2.90;;
11962;SDS011;62678;52.130;5.584;2022-12-07T07:21:10;13.55;;;2.85;;
11962;SDS011;62678;52.130;5.584;2022-12-07T07:23:38;10.32;;;2.65;;
11962;SDS011;62678;52.130;5.584;2022-12-07T07:26:05;11.43;;;3.45;;
11962;SDS011;62678;52.130;5.584;2022-12-07T07:28:32;10.43;;;3.17;;
11962;SDS011;62678;52.130;5.584;2022-12-07T07:30:59;7.80;;;3.58;;
11962;SDS011;62678;52.130;5.584;2022-12-07T07:33:27;15.95;;;8.07;;
11962;SDS011;62678;52.130;5.584;2022-12-07T07:35:54;15.00;;;5.70;;
11962;SDS011;62678;52.130;5.584;2022-12-07T07:38:21;14.13;;;6.13;;
11962;SDS011;62678;52.130;5.584;2022-12-07T07:40:49;14.15;;;3.78;;
11962;SDS011;62678;52.130;5.584;2022-12-07T07:43:16;11.38;;;3.30;;
11962;SDS011;62678;52.130;5.584;2022-12-07T07:45:44;14.63;;;3.88;;
11962;SDS011;62678;52.130;5.584;2022-12-07T07:48:11;13.52;;;5.57;;
11962;SDS011;62678;52.130;5.584;2022-12-07T07:50:38;10.93;;;4.85;;
11962;SDS011;62678;52.130;5.584;2022-12-07T07:53:05;10.38;;;4.70;;
11962;SDS011;62678;52.130;5.584;2022-12-07T07:55:32;15.32;;;4.07;;
11962;SDS011;62678;52.130;5.584;2022-12-07T07:58:00;14.68;;;4.35;;
11962;SDS011;62678;52.130;5.584;2022-12-07T08:00:28;20.25;;;4.75;;
11962;SDS011;62678;52.130;5.584;2022-12-07T08:02:55;17.75;;;7.63;;
11962;SDS011;62678;52.130;5.584;2022-12-07T08:05:22;22.50;;;7.40;;
11962;SDS011;62678;52.130;5.584;2022-12-07T08:07:51;19.33;;;6.53;;
11962;SDS011;62678;52.130;5.584;2022-12-07T08:10:19;15.07;;;5.90;;
11962;SDS011;62678;52.130;5.584;2022-12-07T08:12:46;12.93;;;4.60;;
11962;SDS011;62678;52.130;5.584;2022-12-07T08:15:32;13.50;;;4.40;;
11962;SDS011;62678;52.130;5.584;2022-12-07T08:17:59;14.68;;;4.47;;
11962;SDS011;62678;52.130;5.584;2022-12-07T08:20:26;15.85;;;5.22;;
11962;SDS011;62678;52.130;5.584;2022-12-07T08:22:57;19.60;;;5.53;;
11962;SDS011;62678;52.130;5.584;2022-12-07T08:25:24;13.18;;;4.72;;
11962;SDS011;62678;52.130;5.584;2022-12-07T08:27:51;16.92;;;5.75;;
11962;SDS011;62678;52.130;5.584;2022-12-07T08:30:19;17.80;;;5.60;;
11962;SDS011;62678;52.130;5.584;2022-12-07T08:32:48;18.33;;;6.07;;
11962;SDS011;62678;52.130;5.584;2022-12-07T08:35:15;17.33;;;5.78;;
11962;SDS011;62678;52.130;5.584;2022-12-07T08:37:43;12.20;;;5.07;;
11962;SDS011;62678;52.130;5.584;2022-12-07T08:40:10;10.13;;;5.45;;
11962;SDS011;62678;52.130;5.584;2022-12-07T08:42:41;17.63;;;4.88;;
11962;SDS011;62678;52.130;5.584;2022-12-07T08:45:10;18.95;;;4.65;;
11962;SDS011;62678;52.130;5.584;2022-12-07T08:47:39;13.77;;;4.63;;
11962;SDS011;62678;52.130;5.584;2022-12-07T08:50:11;16.48;;;3.97;;
11962;SDS011;62678;52.130;5.584;2022-12-07T08:52:39;13.23;;;4.35;;
11962;SDS011;62678;52.130;5.584;2022-12-07T08:55:08;11.93;;;4.10;;
11962;SDS011;62678;52.130;5.584;2022-12-07T08:57:36;15.32;;;3.92;;
11962;SDS011;62678;52.130;5.584;2022-12-07T09:00:04;7.05;;;3.80;;
11962;SDS011;62678;52.130;5.584;2022-12-07T09:02:32;9.75;;;4.13;;
11962;SDS011;62678;52.130;5.584;2022-12-07T09:04:59;11.50;;;4.90;;
11962;SDS011;62678;52.130;5.584;2022-12-07T09:07:27;14.95;;;4.75;;
11962;SDS011;62678;52.130;5.584;2022-12-07T09:09:58;17.20;;;5.32;;
11962;SDS011;62678;52.130;5.584;2022-12-07T09:12:25;13.05;;;5.43;;
11962;SDS011;62678;52.130;5.584;2022-12-07T09:14:51;11.80;;;4.40;;
11962;SDS011;62678;52.130;5.584;2022-12-07T09:17:18;13.38;;;4.70;;
11962;SDS011;62678;52.130;5.584;2022-12-07T09:19:45;11.77;;;4.00;;
11962;SDS011;62678;52.130;5.584;2022-12-07T09:22:12;14.52;;;4.25;;
11962;SDS011;62678;52.130;5.584;2022-12-07T09:24:41;12.23;;;4.38;;
11962;SDS011;62678;52.130;5.584;2022-12-07T09:27:08;15.45;;;4.47;;
11962;SDS011;62678;52.130;5.584;2022-12-07T09:29:35;14.48;;;4.13;;
11962;SDS011;62678;52.130;5.584;2022-12-07T09:32:02;18.50;;;6.00;;
11962;SDS011;62678;52.130;5.584;2022-12-07T09:34:30;14.65;;;4.50;;
11962;SDS011;62678;52.130;5.584;2022-12-07T09:36:57;13.40;;;4.25;;
11962;SDS011;62678;52.130;5.584;2022-12-07T09:39:25;16.77;;;4.13;;
11962;SDS011;62678;52.130;5.584;2022-12-07T09:41:53;13.65;;;3.88;;
11962;SDS011;62678;52.130;5.584;2022-12-07T09:44:21;11.55;;;3.40;;
11962;SDS011;62678;52.130;5.584;2022-12-07T09:46:50;12.88;;;4.53;;
11962;SDS011;62678;52.130;5.584;2022-12-07T09:49:19;10.15;;;3.63;;
11962;SDS011;62678;52.130;5.584;2022-12-07T09:51:47;8.65;;;3.50;;
11962;SDS011;62678;52.130;5.584;2022-12-07T09:54:25;12.32;;;4.45;;
11962;SDS011;62678;52.130;5.584;2022-12-07T09:56:53;13.30;;;3.92;;
11962;SDS011;62678;52.130;5.584;2022-12-07T09:59:20;10.23;;;3.10;;
11962;SDS011;62678;52.130;5.584;2022-12-07T10:01:49;9.15;;;2.92;;
11962;SDS011;62678;52.130;5.584;2022-12-07T10:04:17;9.63;;;3.00;;
11962;SDS011;62678;52.130;5.584;2022-12-07T10:06:46;7.80;;;2.58;;
11962;SDS011;62678;52.130;5.584;2022-12-07T10:09:14;8.77;;;2.45;;
11962;SDS011;62678;52.130;5.584;2022-12-07T10:12:00;10.23;;;2.95;;
11962;SDS011;62678;52.130;5.584;2022-12-07T10:14:29;10.00;;;2.80;;
11962;SDS011;62678;52.130;5.584;2022-12-07T10:16:57;8.27;;;2.67;;
11962;SDS011;62678;52.130;5.584;2022-12-07T10:19:25;8.73;;;2.38;;
11962;SDS011;62678;52.130;5.584;2022-12-07T10:22:01;12.20;;;2.90;;
11962;SDS011;62678;52.130;5.584;2022-12-07T10:24:30;9.30;;;2.40;;
11962;SDS011;62678;52.130;5.584;2022-12-07T10:26:58;9.30;;;2.65;;
11962;SDS011;62678;52.130;5.584;2022-12-07T10:29:28;9.25;;;3.05;;
11962;SDS011;62678;52.130;5.584;2022-12-07T10:31:57;7.65;;;3.60;;
11962;SDS011;62678;52.130;5.584;2022-12-07T10:34:26;9.77;;;4.78;;
11962;SDS011;62678;52.130;5.584;2022-12-07T10:37:07;14.55;;;6.00;;
11962;SDS011;62678;52.130;5.584;2022-12-07T10:39:41;10.93;;;4.70;;
11962;SDS011;62678;52.130;5.584;2022-12-07T10:42:17;10.90;;;3.47;;
11962;SDS011;62678;52.130;5.584;2022-12-07T10:44:45;8.60;;;2.92;;
11962;SDS011;62678;52.130;5.584;2022-12-07T10:47:21;8.80;;;2.88;;
11962;SDS011;62678;52.130;5.584;2022-12-07T10:52:51;9.38;;;2.35;;
11962;SDS011;62678;52.130;5.584;2022-12-07T10:55:32;9.68;;;2.10;;
11962;SDS011;62678;52.130;5.584;2022-12-07T10:58:15;5.45;;;1.77;;
11962;SDS011;62678;52.130;5.584;2022-12-07T11:00:56;6.88;;;1.88;;
11962;SDS011;62678;52.130;5.584;2022-12-07T11:06:44;7.20;;;1.70;;
11962;SDS011;62678;52.130;5.584;2022-12-07T11:12:11;6.75;;;1.60;;
11962;SDS011;62678;52.130;5.584;2022-12-07T11:14:50;4.50;;;1.77;;
11962;SDS011;62678;52.130;5.584;2022-12-07T11:17:23;4.53;;;1.23;;
11962;SDS011;62678;52.130;5.584;2022-12-07T11:20:01;9.00;;;1.60;;
11962;SDS011;62678;52.130;5.584;2022-12-07T11:22:40;5.57;;;1.52;;
11962;SDS011;62678;52.130;5.584;2022-12-07T11:25:15;8.75;;;2.10;;
11962;SDS011;62678;52.130;5.584;2022-12-07T11:27:48;9.25;;;1.75;;
11962;SDS011;62678;52.130;5.584;2022-12-07T11:30:31;6.88;;;1.75;;
11962;SDS011;62678;52.130;5.584;2022-12-07T11:33:09;7.38;;;2.25;;
11962;SDS011;62678;52.130;5.584;2022-12-07T11:35:43;7.50;;;2.17;;
11962;SDS011;62678;52.130;5.584;2022-12-07T11:38:20;5.68;;;1.90;;
11962;SDS011;62678;52.130;5.584;2022-12-07T11:40:53;5.95;;;2.50;;
11962;SDS011;62678;52.130;5.584;2022-12-07T11:43:37;9.40;;;2.90;;
11962;SDS011;62678;52.130;5.584;2022-12-07T11:46:18;10.57;;;2.28;;
11962;SDS011;62678;52.130;5.584;2022-12-07T11:48:50;6.82;;;2.38;;
11962;SDS011;62678;52.130;5.584;2022-12-07T11:51:24;8.70;;;2.53;;
11962;SDS011;62678;52.130;5.584;2022-12-07T11:53:53;8.00;;;1.80;;
11962;SDS011;62678;52.130;5.584;2022-12-07T11:56:23;7.38;;;1.70;;
11962;SDS011;62678;52.130;5.584;2022-12-07T11:58:54;5.88;;;1.70;;
11962;SDS011;62678;52.130;5.584;2022-12-07T12:01:29;8.02;;;2.13;;
11962;SDS011;62678;52.130;5.584;2022-12-07T12:04:13;6.95;;;1.92;;
11962;SDS011;62678;52.130;5.584;2022-12-07T12:06:50;6.00;;;1.80;;
11962;SDS011;62678;52.130;5.584;2022-12-07T12:09:19;8.98;;;1.90;;
11962;SDS011;62678;52.130;5.584;2022-12-07T12:12:01;11.35;;;2.33;;
11962;SDS011;62678;52.130;5.584;2022-12-07T12:14:47;8.70;;;2.40;;
11962;SDS011;62678;52.130;5.584;2022-12-07T12:20:26;5.53;;;1.42;;
11962;SDS011;62678;52.130;5.584;2022-12-07T12:22:58;8.45;;;1.75;;
11962;SDS011;62678;52.130;5.584;2022-12-07T12:25:35;3.97;;;1.30;;
11962;SDS011;62678;52.130;5.584;2022-12-07T12:28:10;4.85;;;1.52;;
11962;SDS011;62678;52.130;5.584;2022-12-07T12:31:04;5.95;;;1.52;;
11962;SDS011;62678;52.130;5.584;2022-12-07T12:33:37;9.40;;;1.88;;
11962;SDS011;62678;52.130;5.584;2022-12-07T12:36:24;8.45;;;3.03;;
11962;SDS011;62678;52.130;5.584;2022-12-07T12:41:56;6.47;;;1.52;;
11962;SDS011;62678;52.130;5.584;2022-12-07T12:47:39;8.27;;;1.50;;
11962;SDS011;62678;52.130;5.584;2022-12-07T12:56:07;10.10;;;2.00;;
11962;SDS011;62678;52.130;5.584;2022-12-07T12:58:46;6.97;;;1.58;;
11962;SDS011;62678;52.130;5.584;2022-12-07T13:01:36;6.47;;;1.27;;
11962;SDS011;62678;52.130;5.584;2022-12-07T13:04:25;5.90;;;1.52;;
11962;SDS011;62678;52.130;5.584;2022-12-07T13:07:13;7.30;;;1.88;;
11962;SDS011;62678;52.130;5.584;2022-12-07T13:10:29;6.63;;;1.45;;
11962;SDS011;62678;52.130;5.584;2022-12-07T13:13:05;7.63;;;2.00;;
11962;SDS011;62678;52.130;5.584;2022-12-07T13:25:22;7.93;;;2.75;;
11962;SDS011;62678;52.130;5.584;2022-12-07T13:27:59;5.90;;;1.80;;
11962;SDS011;62678;52.130;5.584;2022-12-07T13:30:29;11.52;;;3.10;;
11962;SDS011;62678;52.130;5.584;2022-12-07T13:32:57;7.50;;;1.88;;
11962;SDS011;62678;52.130;5.584;2022-12-07T13:35:32;5.13;;;1.73;;
11962;SDS011;62678;52.130;5.584;2022-12-07T13:38:04;6.35;;;1.95;;
11962;SDS011;62678;52.130;5.584;2022-12-07T13:40:40;7.18;;;2.10;;
11962;SDS011;62678;52.130;5.584;2022-12-07T13:43:12;4.05;;;2.28;;
11962;SDS011;62678;52.130;5.584;2022-12-07T13:45:42;10.27;;;2.75;;
11962;SDS011;62678;52.130;5.584;2022-12-07T13:48:16;8.35;;;3.78;;
11962;SDS011;62678;52.130;5.584;2022-12-07T13:50:54;8.50;;;3.50;;
11962;SDS011;62678;52.130;5.584;2022-12-07T13:53:24;6.78;;;3.00;;
11962;SDS011;62678;52.130;5.584;2022-12-07T13:55:55;6.57;;;2.55;;
11962;SDS011;62678;52.130;5.584;2022-12-07T13:58:23;6.00;;;2.55;;
11962;SDS011;62678;52.130;5.584;2022-12-07T14:00:50;9.07;;;3.30;;
11962;SDS011;62678;52.130;5.584;2022-12-07T14:03:26;9.15;;;2.60;;
11962;SDS011;62678;52.130;5.584;2022-12-07T14:06:05;8.95;;;2.95;;
11962;SDS011;62678;52.130;5.584;2022-12-07T14:08:45;7.22;;;3.80;;
11962;SDS011;62678;52.130;5.584;2022-12-07T14:11:16;5.78;;;2.10;;
11962;SDS011;62678;52.130;5.584;2022-12-07T14:13:49;3.28;;;2.05;;
11962;SDS011;62678;52.130;5.584;2022-12-07T14:16:23;7.53;;;2.33;;
11962;SDS011;62678;52.130;5.584;2022-12-07T14:18:52;7.25;;;2.25;;
11962;SDS011;62678;52.130;5.584;2022-12-07T14:21:21;6.70;;;2.55;;
11962;SDS011;62678;52.130;5.584;2022-12-07T14:24:06;6.65;;;2.55;;
11962;SDS011;62678;52.130;5.584;2022-12-07T14:26:40;9.98;;;2.60;;
11962;SDS011;62678;52.130;5.584;2022-12-07T14:29:21;9.73;;;5.68;;
11962;SDS011;62678;52.130;5.584;2022-12-07T14:31:56;7.88;;;3.38;;
11962;SDS011;62678;52.130;5.584;2022-12-07T14:34:23;6.38;;;4.45;;
11962;SDS011;62678;52.130;5.584;2022-12-07T14:36:51;9.23;;;4.45;;
11962;SDS011;62678;52.130;5.584;2022-12-07T14:39:19;6.35;;;3.30;;
11962;SDS011;62678;52.130;5.584;2022-12-07T14:41:46;5.20;;;2.50;;
11962;SDS011;62678;52.130;5.584;2022-12-07T14:44:16;6.53;;;3.00;;
11962;SDS011;62678;52.130;5.584;2022-12-07T14:46:44;8.75;;;4.18;;
11962;SDS011;62678;52.130;5.584;2022-12-07T14:49:11;14.75;;;3.80;;
11962;SDS011;62678;52.130;5.584;2022-12-07T14:51:38;10.65;;;4.70;;
11962;SDS011;62678;52.130;5.584;2022-12-07T14:54:06;9.98;;;4.85;;
11962;SDS011;62678;52.130;5.584;2022-12-07T14:56:43;8.82;;;4.72;;
11962;SDS011;62678;52.130;5.584;2022-12-07T14:59:10;9.10;;;4.43;;
11962;SDS011;62678;52.130;5.584;2022-12-07T15:01:38;11.13;;;7.20;;
11962;SDS011;62678;52.130;5.584;2022-12-07T15:04:05;9.32;;;6.90;;
11962;SDS011;62678;52.130;5.584;2022-12-07T15:06:32;14.60;;;8.63;;
11962;SDS011;62678;52.130;5.584;2022-12-07T15:08:59;8.77;;;4.78;;
11962;SDS011;62678;52.130;5.584;2022-12-07T15:11:26;14.10;;;7.82;;
11962;SDS011;62678;52.130;5.584;2022-12-07T15:13:54;16.17;;;8.02;;
11962;SDS011;62678;52.130;5.584;2022-12-07T15:16:34;15.70;;;11.23;;
11962;SDS011;62678;52.130;5.584;2022-12-07T15:19:01;10.73;;;5.75;;
11962;SDS011;62678;52.130;5.584;2022-12-07T15:21:28;9.77;;;5.95;;
11962;SDS011;62678;52.130;5.584;2022-12-07T15:23:55;13.38;;;6.97;;
11962;SDS011;62678;52.130;5.584;2022-12-07T15:26:22;11.88;;;8.05;;
11962;SDS011;62678;52.130;5.584;2022-12-07T15:28:49;11.45;;;7.43;;